createdAt,value
2017-07-03T00:02:00.314Z,7.20
2017-07-03T00:04:30.894Z,4.57
2017-07-03T00:07:04.493Z,6.67
2017-07-03T00:12:10.181Z,4.10
2017-07-03T00:14:40.106Z,6.00
2017-07-03T00:17:12.920Z,5.30
2017-07-03T00:22:31.264Z,3.90
2017-07-03T00:25:12.228Z,4.13
2017-07-03T00:27:43.441Z,4.43
2017-07-03T00:30:22.377Z,4.23
2017-07-03T00:32:56.438Z,3.83
2017-07-03T00:35:27.077Z,4.60
2017-07-03T00:37:56.818Z,4.87
2017-07-03T00:40:27.731Z,4.10
2017-07-03T00:42:57.965Z,4.03
2017-07-03T00:45:27.732Z,4.83
2017-07-03T00:47:56.848Z,5.57
2017-07-03T00:50:25.610Z,4.53
2017-07-03T00:52:54.733Z,4.87
2017-07-03T00:55:31.985Z,6.13
2017-07-03T00:58:05.646Z,6.50
2017-07-03T01:00:47.390Z,7.57
2017-07-03T01:03:15.162Z,5.67
2017-07-03T01:05:42.761Z,6.30
2017-07-03T01:08:10.310Z,6.93
2017-07-03T01:10:37.906Z,6.37
2017-07-03T01:13:05.487Z,5.93
2017-07-03T01:15:33.218Z,6.17
2017-07-03T01:18:00.819Z,7.43
2017-07-03T01:20:40.045Z,5.80
2017-07-03T01:25:52.446Z,8.30
2017-07-03T01:28:28.565Z,8.17
2017-07-03T01:30:59.520Z,8.93
2017-07-03T01:33:31.377Z,6.00
2017-07-03T01:36:00.283Z,5.50
2017-07-03T01:38:34.585Z,4.67
2017-07-03T01:41:03.526Z,4.60
2017-07-03T01:43:37.423Z,5.30
2017-07-03T01:46:10.873Z,5.27
2017-07-03T01:48:41.618Z,4.57
2017-07-03T01:51:21.172Z,5.17
2017-07-03T01:53:51.186Z,4.83
2017-07-03T01:56:21.872Z,6.30
2017-07-03T01:58:59.349Z,5.37
2017-07-03T02:01:37.154Z,5.97
2017-07-03T02:04:10.118Z,7.33
2017-07-03T02:06:39.165Z,5.93
2017-07-03T02:09:11.913Z,6.13
2017-07-03T02:11:40.810Z,6.40
2017-07-03T02:14:15.589Z,8.57
2017-07-03T02:16:45.430Z,6.20
2017-07-03T02:19:17.116Z,6.97
2017-07-03T02:21:45.966Z,7.17
2017-07-03T02:24:16.651Z,6.63
2017-07-03T02:26:48.654Z,5.77
2017-07-03T02:29:23.932Z,6.40
2017-07-03T02:31:53.064Z,6.40
2017-07-03T02:34:25.085Z,6.20
2017-07-03T02:36:59.775Z,6.80
2017-07-03T02:39:31.179Z,8.80
2017-07-03T02:42:01.982Z,11.90
2017-07-03T02:44:42.989Z,7.50
2017-07-03T02:47:15.577Z,6.90
2017-07-03T02:49:46.605Z,9.77
2017-07-03T02:52:22.153Z,11.10
2017-07-03T02:54:56.048Z,7.30
2017-07-03T03:00:07.905Z,6.90
2017-07-03T03:02:37.481Z,7.23
2017-07-03T03:05:05.156Z,6.90
2017-07-03T03:07:32.807Z,7.43
2017-07-03T03:10:00.576Z,7.07
2017-07-03T03:12:28.141Z,11.10
2017-07-03T03:14:55.726Z,10.70
2017-07-03T03:17:23.470Z,9.60
2017-07-03T03:19:51.216Z,9.13
2017-07-03T03:22:18.812Z,8.40
2017-07-03T03:24:56.187Z,8.40
2017-07-03T03:27:28.531Z,8.63
2017-07-03T03:30:02.951Z,9.47
2017-07-03T03:32:33.925Z,9.87
2017-07-03T03:35:10.590Z,11.23
2017-07-03T03:37:42.297Z,10.27
2017-07-03T03:40:24.300Z,12.87
2017-07-03T03:43:04.404Z,10.43
2017-07-03T03:45:34.338Z,10.17
2017-07-03T03:48:14.336Z,11.90
2017-07-03T03:50:43.804Z,11.37
2017-07-03T03:53:17.450Z,11.53
2017-07-03T03:55:45.808Z,11.00
2017-07-03T03:58:16.476Z,10.77
2017-07-03T04:03:24.000Z,10.37
2017-07-03T04:05:51.710Z,10.00
2017-07-03T04:08:19.274Z,10.03
2017-07-03T04:10:46.787Z,10.60
2017-07-03T04:13:14.378Z,10.70
2017-07-03T04:15:41.898Z,10.10
2017-07-03T04:18:09.435Z,12.00
2017-07-03T04:20:36.994Z,10.50
2017-07-03T04:23:04.553Z,12.93
2017-07-03T04:25:32.164Z,13.00
2017-07-03T04:27:59.771Z,14.33
2017-07-03T04:30:27.338Z,10.17
2017-07-03T04:32:55.913Z,16.73
2017-07-03T04:35:23.481Z,11.40
2017-07-03T04:37:51.102Z,9.63
2017-07-03T04:40:18.929Z,9.70
2017-07-03T04:42:46.558Z,9.80
2017-07-03T04:45:15.174Z,8.77
2017-07-03T04:47:43.622Z,11.00
2017-07-03T04:50:11.233Z,10.73
2017-07-03T04:52:41.777Z,11.47
2017-07-03T04:55:09.384Z,12.70
2017-07-03T04:57:36.989Z,9.60
2017-07-03T05:00:07.076Z,10.37
2017-07-03T05:02:34.685Z,10.13
2017-07-03T05:05:02.354Z,10.30
2017-07-03T05:07:29.952Z,12.10
2017-07-03T05:09:57.518Z,12.37
2017-07-03T05:12:25.059Z,13.13
2017-07-03T05:14:52.718Z,13.50
2017-07-03T05:17:20.509Z,14.00
2017-07-03T05:19:48.032Z,15.67
2017-07-03T05:22:15.621Z,14.40
2017-07-03T05:24:43.366Z,16.03
2017-07-03T05:27:10.918Z,14.00
2017-07-03T05:29:38.487Z,16.57
2017-07-03T05:32:06.094Z,16.90
2017-07-03T05:34:33.632Z,20.60
2017-07-03T05:37:01.196Z,17.03
2017-07-03T05:39:28.784Z,15.93
2017-07-03T05:41:56.617Z,16.47
2017-07-03T05:44:29.069Z,16.50
2017-07-03T05:46:56.825Z,17.63
2017-07-03T05:49:24.573Z,17.97
2017-07-03T05:51:52.161Z,22.00
2017-07-03T05:54:19.901Z,19.20
2017-07-03T05:56:47.476Z,18.10
2017-07-03T05:59:15.074Z,19.57
2017-07-03T06:01:42.693Z,18.77
2017-07-03T06:04:10.447Z,19.80
2017-07-03T06:06:38.204Z,19.47
2017-07-03T06:09:05.817Z,17.47
2017-07-03T06:11:33.362Z,16.30
2017-07-03T06:14:00.988Z,17.47
2017-07-03T06:16:28.624Z,15.30
2017-07-03T06:18:56.206Z,15.30
2017-07-03T06:21:23.804Z,15.40
2017-07-03T06:23:51.420Z,17.80
2017-07-03T06:26:18.985Z,17.70
2017-07-03T06:28:46.518Z,23.07
2017-07-03T06:31:14.379Z,19.13
2017-07-03T06:33:42.310Z,22.67
2017-07-03T06:36:10.084Z,20.50
2017-07-03T06:38:37.745Z,20.17
2017-07-03T06:41:05.510Z,21.37
2017-07-03T06:43:33.616Z,22.20
2017-07-03T06:46:01.240Z,23.57
2017-07-03T06:48:29.002Z,22.70
2017-07-03T06:50:56.573Z,27.00
2017-07-03T06:53:24.162Z,23.63
2017-07-03T06:55:51.914Z,28.00
2017-07-03T06:58:19.542Z,25.37
2017-07-03T07:00:47.110Z,23.57
2017-07-03T07:03:15.316Z,26.10
2017-07-03T07:05:43.174Z,25.00
2017-07-03T07:08:10.817Z,24.63
2017-07-03T07:10:38.580Z,26.80
2017-07-03T07:13:06.206Z,24.23
2017-07-03T07:15:33.826Z,26.20
2017-07-03T07:18:01.705Z,26.17
2017-07-03T07:20:29.245Z,27.87
2017-07-03T07:22:56.877Z,26.13
2017-07-03T07:25:24.484Z,24.03
2017-07-03T07:27:52.067Z,23.27
2017-07-03T07:30:19.728Z,25.10
2017-07-03T07:32:47.583Z,30.10
2017-07-03T07:35:15.374Z,28.80
2017-07-03T07:37:43.021Z,22.97
2017-07-03T07:40:10.599Z,22.40
2017-07-03T07:42:38.160Z,23.00
2017-07-03T07:45:06.128Z,21.90
2017-07-03T07:47:33.999Z,23.30
2017-07-03T07:50:01.621Z,24.73
2017-07-03T07:52:29.412Z,21.87
2017-07-03T07:54:57.019Z,23.70
2017-07-03T07:57:24.896Z,24.97
2017-07-03T07:59:52.522Z,28.67
2017-07-03T08:02:20.139Z,25.57
2017-07-03T08:04:47.719Z,26.83
2017-07-03T08:07:15.526Z,23.43
2017-07-03T08:09:43.140Z,28.10
2017-07-03T08:12:10.764Z,24.63
2017-07-03T08:14:38.370Z,26.17
2017-07-03T08:17:06.100Z,25.30
2017-07-03T08:19:33.984Z,27.00
2017-07-03T08:22:01.597Z,23.87
2017-07-03T08:24:29.232Z,21.73
2017-07-03T08:26:56.840Z,24.83
2017-07-03T08:29:24.427Z,21.67
2017-07-03T08:31:52.255Z,24.00
2017-07-03T08:34:19.925Z,24.10
2017-07-03T08:36:47.571Z,22.23
2017-07-03T08:39:15.250Z,22.73
2017-07-03T08:41:43.356Z,23.47
2017-07-03T08:44:11.172Z,21.93
2017-07-03T08:46:38.892Z,22.13
2017-07-03T08:49:06.716Z,24.13
2017-07-03T08:51:34.586Z,23.40
2017-07-03T08:54:02.220Z,21.37
2017-07-03T08:56:30.067Z,22.77
2017-07-03T08:58:57.652Z,21.53
2017-07-03T09:01:26.525Z,22.00
2017-07-03T09:03:54.136Z,22.87
2017-07-03T09:06:22.066Z,20.77
2017-07-03T09:08:49.687Z,27.67
2017-07-03T09:11:17.276Z,21.77
2017-07-03T09:13:45.073Z,20.90
2017-07-03T09:16:13.030Z,23.17
2017-07-03T09:18:40.661Z,21.30
2017-07-03T09:21:08.292Z,19.43
2017-07-03T09:23:35.912Z,21.70
2017-07-03T09:26:03.479Z,21.90
2017-07-03T09:28:31.043Z,20.93
2017-07-03T09:30:58.673Z,19.77
2017-07-03T09:33:26.261Z,21.77
2017-07-03T09:35:53.913Z,18.90
2017-07-03T09:38:22.017Z,20.33
2017-07-03T09:40:49.595Z,18.67
2017-07-03T09:43:17.388Z,20.83
2017-07-03T09:45:45.820Z,18.07
2017-07-03T09:48:13.645Z,17.27
2017-07-03T09:50:41.212Z,19.63
2017-07-03T09:53:08.881Z,20.90
2017-07-03T09:55:36.504Z,18.23
2017-07-03T09:58:04.306Z,18.80
2017-07-03T10:00:32.308Z,18.97
2017-07-03T10:02:59.931Z,17.90
2017-07-03T10:05:27.556Z,18.23
2017-07-03T10:07:55.178Z,16.67
2017-07-03T10:10:22.770Z,16.80
2017-07-03T10:12:50.388Z,19.47
2017-07-03T10:15:18.007Z,17.60
2017-07-03T10:17:45.661Z,21.20
2017-07-03T10:20:13.227Z,18.83
2017-07-03T10:22:40.894Z,19.23
2017-07-03T10:25:08.495Z,18.97
2017-07-03T10:27:36.137Z,20.37
2017-07-03T10:30:06.008Z,15.83
2017-07-03T10:32:33.862Z,18.00
2017-07-03T10:35:01.411Z,15.50
2017-07-03T10:37:29.027Z,18.13
2017-07-03T10:39:56.793Z,18.00
2017-07-03T10:42:24.320Z,18.70
2017-07-03T10:44:51.916Z,15.33
2017-07-03T10:47:20.199Z,16.27
2017-07-03T10:49:47.740Z,12.43
2017-07-03T10:52:15.318Z,13.80
2017-07-03T10:54:43.223Z,13.17
2017-07-03T10:57:10.793Z,14.60
2017-07-03T10:59:38.379Z,15.90
2017-07-03T11:02:05.948Z,13.80
2017-07-03T11:04:33.560Z,13.97
2017-07-03T11:07:01.300Z,13.73
2017-07-03T11:09:28.888Z,14.30
2017-07-03T11:11:56.433Z,11.93
2017-07-03T11:14:23.986Z,16.80
2017-07-03T11:16:51.609Z,14.73
2017-07-03T11:19:19.206Z,17.20
2017-07-03T11:21:47.130Z,15.13
2017-07-03T11:24:14.764Z,15.63
2017-07-03T11:26:42.318Z,15.60
2017-07-03T11:29:09.865Z,16.50
2017-07-03T11:31:37.449Z,18.27
2017-07-03T11:34:05.002Z,18.60
2017-07-03T11:36:32.921Z,21.77
2017-07-03T11:39:00.519Z,18.83
2017-07-03T11:41:28.062Z,18.90
2017-07-03T11:43:55.612Z,20.43
2017-07-03T11:46:23.202Z,17.30
2017-07-03T11:48:50.833Z,17.47
2017-07-03T11:51:18.692Z,17.07
2017-07-03T11:53:46.264Z,16.10
2017-07-03T11:56:14.075Z,16.60
2017-07-03T11:58:41.612Z,19.17
2017-07-03T12:01:09.271Z,16.50
2017-07-03T12:03:36.824Z,15.27
2017-07-03T12:06:04.430Z,15.80
2017-07-03T12:08:32.016Z,16.07
2017-07-03T12:10:59.600Z,13.67
2017-07-03T12:13:27.143Z,15.13
2017-07-03T12:15:54.821Z,13.77
2017-07-03T12:18:22.412Z,13.17
2017-07-03T12:20:49.988Z,13.10
2017-07-03T12:23:17.587Z,13.93
2017-07-03T12:25:45.106Z,13.53
2017-07-03T12:28:12.644Z,12.37
2017-07-03T12:30:40.236Z,11.63
2017-07-03T12:33:07.795Z,12.37
2017-07-03T12:35:35.324Z,12.97
2017-07-03T12:38:02.903Z,13.60
2017-07-03T12:40:30.449Z,14.83
2017-07-03T12:42:57.998Z,11.20
2017-07-03T12:45:25.648Z,13.83
2017-07-03T12:47:53.437Z,12.40
2017-07-03T12:50:21.041Z,13.07
2017-07-03T12:52:48.662Z,12.97
2017-07-03T12:55:17.187Z,11.07
2017-07-03T12:57:44.032Z,10.30
2017-07-03T13:00:11.783Z,9.90
2017-07-03T13:02:39.405Z,11.40
2017-07-03T13:05:06.963Z,10.63
2017-07-03T13:07:34.580Z,9.43
2017-07-03T13:10:02.207Z,9.57
2017-07-03T13:12:29.791Z,9.27
2017-07-03T13:14:57.433Z,8.27
2017-07-03T13:17:25.000Z,7.90
2017-07-03T13:19:52.801Z,7.90
2017-07-03T13:22:20.415Z,11.40
2017-07-03T13:24:48.010Z,8.23
2017-07-03T13:27:15.787Z,9.93
2017-07-03T13:29:43.399Z,11.63
2017-07-03T13:32:11.042Z,11.97
2017-07-03T13:34:38.569Z,14.53
2017-07-03T13:37:06.144Z,12.70
2017-07-03T13:39:33.888Z,17.57
2017-07-03T13:42:01.470Z,17.50
2017-07-03T13:44:29.026Z,18.43
2017-07-03T13:46:56.613Z,18.57
2017-07-03T13:49:24.411Z,17.00
2017-07-03T13:51:51.924Z,19.83
2017-07-03T13:54:19.517Z,17.67
2017-07-03T13:56:47.420Z,22.80
2017-07-03T13:59:15.055Z,18.00
2017-07-03T14:01:42.691Z,19.63
2017-07-03T14:04:10.246Z,16.93
2017-07-03T14:06:37.878Z,18.00
2017-07-03T14:09:05.504Z,15.63
2017-07-03T14:11:33.105Z,17.50
2017-07-03T14:14:00.719Z,15.57
2017-07-03T14:16:28.393Z,16.23
2017-07-03T14:18:56.877Z,15.23
2017-07-03T14:21:24.692Z,18.50
2017-07-03T14:23:52.323Z,14.43
2017-07-03T14:26:19.878Z,14.87
2017-07-03T14:28:47.498Z,14.53
2017-07-03T14:31:15.094Z,15.90
2017-07-03T14:33:42.733Z,17.40
2017-07-03T14:36:10.347Z,16.97
2017-07-03T14:38:37.935Z,16.37
2017-07-03T14:41:05.547Z,21.40
2017-07-03T14:43:33.370Z,15.57
2017-07-03T14:46:00.970Z,17.33
2017-07-03T14:48:28.542Z,18.23
2017-07-03T14:50:56.141Z,17.53
2017-07-03T14:53:23.755Z,23.40
2017-07-03T14:55:51.360Z,17.57
2017-07-03T14:58:19.012Z,15.57
2017-07-03T15:00:46.643Z,14.00
2017-07-03T15:03:14.700Z,15.93
2017-07-03T15:05:42.772Z,17.03
2017-07-03T15:08:10.349Z,20.00
2017-07-03T15:10:38.000Z,16.40
2017-07-03T15:13:05.896Z,12.33
2017-07-03T15:15:33.558Z,17.67
2017-07-03T15:18:01.307Z,13.83
2017-07-03T15:20:28.882Z,24.67
2017-07-03T15:22:56.475Z,11.00
2017-07-03T15:25:24.008Z,9.00
2017-07-03T15:27:51.753Z,8.47
2017-07-03T15:30:19.338Z,5.10
2017-07-03T15:32:47.066Z,5.50
2017-07-03T15:35:14.848Z,4.83
2017-07-03T15:37:42.497Z,5.57
2017-07-03T15:40:10.085Z,4.50
2017-07-03T15:42:37.917Z,5.70
2017-07-03T15:45:05.527Z,3.33
2017-07-03T15:47:33.135Z,5.40
2017-07-03T15:50:00.713Z,3.67
2017-07-03T15:52:28.355Z,13.10
2017-07-03T15:54:56.069Z,7.83
2017-07-03T15:57:25.819Z,9.90
2017-07-03T15:59:53.443Z,10.93
2017-07-03T16:02:21.100Z,6.57
2017-07-03T16:04:49.493Z,6.33
2017-07-03T16:07:17.184Z,5.60
2017-07-03T16:09:44.847Z,5.83
2017-07-03T16:12:12.611Z,5.87
2017-07-03T16:14:40.268Z,3.67
2017-07-03T16:17:08.039Z,6.40
2017-07-03T16:19:35.931Z,5.17
2017-07-03T16:22:03.503Z,5.90
2017-07-03T16:24:31.972Z,5.03
2017-07-03T16:26:59.599Z,5.00
2017-07-03T16:29:27.552Z,9.60
2017-07-03T16:31:55.181Z,6.10
2017-07-03T16:34:22.750Z,6.70
2017-07-03T16:36:50.784Z,4.77
2017-07-03T16:39:18.422Z,6.73
2017-07-03T16:41:48.353Z,5.90
2017-07-03T16:44:16.549Z,6.07
2017-07-03T16:46:44.267Z,6.63
2017-07-03T16:49:11.859Z,5.17
2017-07-03T16:51:40.871Z,3.47
2017-07-03T16:54:10.390Z,5.90
2017-07-03T16:56:40.408Z,4.93
2017-07-03T16:59:09.971Z,5.90
2017-07-03T17:01:41.665Z,9.60
2017-07-03T17:04:11.220Z,14.17
2017-07-03T17:06:40.397Z,15.00
2017-07-03T17:09:09.869Z,10.77
2017-07-03T17:11:37.415Z,8.10
2017-07-03T17:14:05.231Z,7.93
2017-07-03T17:16:32.817Z,7.67
2017-07-03T17:19:00.400Z,6.87
2017-07-03T17:21:28.639Z,8.73
2017-07-03T17:23:57.509Z,6.03
2017-07-03T17:26:26.219Z,7.10
2017-07-03T17:28:56.493Z,7.73
2017-07-03T17:31:24.780Z,7.00
2017-07-03T17:33:53.396Z,6.23
2017-07-03T17:36:22.597Z,8.13
2017-07-03T17:38:51.019Z,6.63
2017-07-03T17:41:19.076Z,7.27
2017-07-03T17:43:47.774Z,5.27
2017-07-03T17:46:17.259Z,7.93
2017-07-03T17:48:45.997Z,5.30
2017-07-03T17:51:13.732Z,5.13
2017-07-03T17:53:41.360Z,5.23
2017-07-03T17:56:09.497Z,6.70
2017-07-03T17:58:39.809Z,7.43
2017-07-03T18:01:07.549Z,5.53
2017-07-03T18:03:35.071Z,5.20
2017-07-03T18:06:02.671Z,5.57
2017-07-03T18:08:30.267Z,5.20
2017-07-03T18:10:57.809Z,6.47
2017-07-03T18:13:25.350Z,6.17
2017-07-03T18:15:52.992Z,9.37
2017-07-03T18:18:20.516Z,6.30
2017-07-03T18:20:48.096Z,6.70
2017-07-03T18:23:15.715Z,6.50
2017-07-03T18:25:43.235Z,6.70
2017-07-03T18:28:10.806Z,8.23
2017-07-03T18:30:38.469Z,7.23
2017-07-03T18:33:06.031Z,6.30
2017-07-03T18:35:33.777Z,7.70
2017-07-03T18:38:01.363Z,7.13
2017-07-03T18:40:28.908Z,6.37
2017-07-03T18:42:56.423Z,8.97
2017-07-03T18:45:24.506Z,6.40
2017-07-03T18:47:52.094Z,6.90
2017-07-03T18:50:19.658Z,6.70
2017-07-03T18:52:47.306Z,5.90
2017-07-03T18:55:14.850Z,6.17
2017-07-03T18:57:43.210Z,6.80
2017-07-03T19:00:10.885Z,6.00
2017-07-03T19:02:38.626Z,7.17
2017-07-03T19:05:06.210Z,16.00
2017-07-03T19:07:33.830Z,7.67
2017-07-03T19:10:01.344Z,7.20
2017-07-03T19:12:28.890Z,10.13
2017-07-03T19:14:56.506Z,9.27
2017-07-03T19:17:24.151Z,5.93
2017-07-03T19:19:51.704Z,6.70
2017-07-03T19:22:19.297Z,5.93
2017-07-03T19:24:47.172Z,7.37
2017-07-03T19:27:14.734Z,5.80
2017-07-03T19:29:42.390Z,6.10
2017-07-03T19:32:10.727Z,6.97
2017-07-03T19:34:38.301Z,7.40
2017-07-03T19:37:06.947Z,5.97
2017-07-03T19:39:34.563Z,6.00
2017-07-03T19:42:02.206Z,6.67
2017-07-03T19:44:29.964Z,6.10
2017-07-03T19:46:57.593Z,6.33
2017-07-03T19:49:25.144Z,6.30
2017-07-03T19:51:52.770Z,6.87
2017-07-03T19:54:20.351Z,6.77
2017-07-03T19:56:47.905Z,6.40
2017-07-03T19:59:15.734Z,6.17
2017-07-03T20:01:43.340Z,8.30
2017-07-03T20:04:10.868Z,7.73
2017-07-03T20:06:38.483Z,6.07
2017-07-03T20:09:06.996Z,5.90
2017-07-03T20:11:34.599Z,7.10
2017-07-03T20:14:02.368Z,6.90
2017-07-03T20:16:29.992Z,6.60
2017-07-03T20:18:57.729Z,6.10
2017-07-03T20:21:25.366Z,7.20
2017-07-03T20:23:52.975Z,8.33
2017-07-03T20:26:20.566Z,8.43
2017-07-03T20:28:48.131Z,7.80
2017-07-03T20:31:15.973Z,7.33
2017-07-03T20:33:43.539Z,6.27
2017-07-03T20:36:11.085Z,5.80
2017-07-03T20:38:38.661Z,6.97
2017-07-03T20:41:06.211Z,6.00
2017-07-03T20:43:33.795Z,6.30
2017-07-03T20:46:01.377Z,7.00
2017-07-03T20:48:29.113Z,6.00
2017-07-03T20:50:56.636Z,7.80
2017-07-03T20:53:24.221Z,7.27
2017-07-03T20:55:51.769Z,6.23
2017-07-03T20:58:19.344Z,6.63
2017-07-03T21:00:46.985Z,5.67
2017-07-03T21:03:14.598Z,6.33
2017-07-03T21:05:42.158Z,10.23
2017-07-03T21:08:09.767Z,6.20
2017-07-03T21:10:37.312Z,6.90
2017-07-03T21:13:04.866Z,6.97
2017-07-03T21:15:32.449Z,7.17
2017-07-03T21:18:00.036Z,7.27
2017-07-03T21:20:27.588Z,7.23
2017-07-03T21:22:56.472Z,6.57
2017-07-03T21:25:24.365Z,9.53
2017-07-03T21:27:52.721Z,7.97
2017-07-03T21:30:21.106Z,7.90
2017-07-03T21:32:58.036Z,8.83
2017-07-03T21:35:27.502Z,7.53
2017-07-03T21:37:55.324Z,6.57
2017-07-03T21:40:23.141Z,10.10
2017-07-03T21:42:50.771Z,5.90
2017-07-03T21:45:18.383Z,6.97
2017-07-03T21:47:45.951Z,7.37
2017-07-03T21:50:13.549Z,8.30
2017-07-03T21:52:41.132Z,6.57
2017-07-03T21:55:08.692Z,6.53
2017-07-03T21:57:36.268Z,8.00
2017-07-03T22:00:08.603Z,6.50
2017-07-03T22:02:36.354Z,6.63
2017-07-03T22:05:04.101Z,5.70
2017-07-03T22:07:31.869Z,5.87
2017-07-03T22:10:00.373Z,6.30
2017-07-03T22:12:28.439Z,5.70
2017-07-03T22:14:56.096Z,6.87
2017-07-03T22:17:23.652Z,5.90
2017-07-03T22:20:15.909Z,6.50
2017-07-03T22:22:43.562Z,5.70
2017-07-03T22:25:11.166Z,6.47
2017-07-03T22:27:38.760Z,5.40
2017-07-03T22:30:08.217Z,6.53
2017-07-03T22:32:35.786Z,5.50
2017-07-03T22:35:03.531Z,5.53
2017-07-03T22:37:31.126Z,7.23
2017-07-03T22:39:58.867Z,5.80
2017-07-03T22:42:26.408Z,5.97
2017-07-03T22:44:53.980Z,6.00
2017-07-03T22:47:21.834Z,5.43
2017-07-03T22:49:49.380Z,6.30
2017-07-03T22:52:17.030Z,6.47
2017-07-03T22:54:45.016Z,6.77
2017-07-03T22:57:12.656Z,7.90
2017-07-03T22:59:40.278Z,5.60
2017-07-03T23:02:07.873Z,5.23
2017-07-03T23:04:35.593Z,8.70
2017-07-03T23:07:03.337Z,7.83
2017-07-03T23:09:30.968Z,9.30
2017-07-03T23:11:58.500Z,9.50
2017-07-03T23:14:26.073Z,5.97
2017-07-03T23:16:53.676Z,8.17
2017-07-03T23:19:21.232Z,8.60
2017-07-03T23:21:48.801Z,7.33
2017-07-03T23:24:16.432Z,6.50
2017-07-03T23:26:44.065Z,5.90
2017-07-03T23:29:12.144Z,8.87
2017-07-03T23:31:39.705Z,6.13
2017-07-03T23:34:07.254Z,5.97
2017-07-03T23:36:34.790Z,6.30
2017-07-03T23:39:02.400Z,7.40
2017-07-03T23:41:29.974Z,7.63
2017-07-03T23:43:57.539Z,6.33
2017-07-03T23:46:25.137Z,6.60
2017-07-03T23:48:52.662Z,5.53
2017-07-03T23:51:20.235Z,6.70
2017-07-03T23:53:47.833Z,6.10
2017-07-03T23:56:15.384Z,6.30
2017-07-03T23:58:43.225Z,5.97
